sensor_id;sensor_type;location;lat;lon;timestamp;P1;durP1;ratioP1;P2;durP2;ratioP2
28070;SDS011;15383;48.408;9.968;2022-12-18T11:09:09;36.15;;;9.68;;
28070;SDS011;15383;48.408;9.968;2022-12-18T11:26:41;38.03;;;8.32;;
28070;SDS011;15383;48.408;9.968;2022-12-18T11:29:37;26.08;;;7.30;;
28070;SDS011;15383;48.408;9.968;2022-12-18T11:37:39;29.50;;;8.68;;
28070;SDS011;15383;48.408;9.968;2022-12-18T11:40:13;38.75;;;8.60;;
28070;SDS011;15383;48.408;9.968;2022-12-18T11:45:52;24.90;;;6.60;;
28070;SDS011;15383;48.408;9.968;2022-12-18T11:48:26;30.70;;;6.53;;
28070;SDS011;15383;48.408;9.968;2022-12-18T11:51:04;36.78;;;7.47;;
28070;SDS011;15383;48.408;9.968;2022-12-18T11:53:34;26.63;;;6.15;;
28070;SDS011;15383;48.408;9.968;2022-12-18T11:56:12;26.90;;;6.63;;
28070;SDS011;15383;48.408;9.968;2022-12-18T11:58:44;34.85;;;7.72;;
28070;SDS011;15383;48.408;9.968;2022-12-18T12:14:47;21.88;;;6.15;;
28070;SDS011;15383;48.408;9.968;2022-12-18T12:20:36;18.92;;;5.25;;
28070;SDS011;15383;48.408;9.968;2022-12-18T12:26:10;12.43;;;4.47;;
28070;SDS011;15383;48.408;9.968;2022-12-18T12:39:59;15.48;;;5.32;;
28070;SDS011;15383;48.408;9.968;2022-12-18T12:42:38;26.30;;;5.32;;
28070;SDS011;15383;48.408;9.968;2022-12-18T12:45:35;18.70;;;5.93;;
28070;SDS011;15383;48.408;9.968;2022-12-18T12:48:13;15.48;;;5.03;;
28070;SDS011;15383;48.408;9.968;2022-12-18T12:51:00;23.10;;;5.47;;
28070;SDS011;15383;48.408;9.968;2022-12-18T12:53:32;16.30;;;5.13;;
28070;SDS011;15383;48.408;9.968;2022-12-18T12:56:01;17.95;;;5.13;;
28070;SDS011;15383;48.408;9.968;2022-12-18T13:01:20;19.05;;;5.40;;
28070;SDS011;15383;48.408;9.968;2022-12-18T13:03:55;18.48;;;5.78;;
28070;SDS011;15383;48.408;9.968;2022-12-18T13:06:47;16.17;;;5.82;;
28070;SDS011;15383;48.408;9.968;2022-12-18T13:09:29;14.95;;;5.15;;
28070;SDS011;15383;48.408;9.968;2022-12-18T13:12:00;34.00;;;5.85;;
28070;SDS011;15383;48.408;9.968;2022-12-18T13:14:48;21.02;;;4.90;;
28070;SDS011;15383;48.408;9.968;2022-12-18T13:19:49;18.75;;;5.07;;
28070;SDS011;15383;48.408;9.968;2022-12-18T13:22:20;21.77;;;5.95;;
28070;SDS011;15383;48.408;9.968;2022-12-18T13:24:48;12.07;;;4.85;;
28070;SDS011;15383;48.408;9.968;2022-12-18T13:30:50;16.17;;;5.53;;
28070;SDS011;15383;48.408;9.968;2022-12-18T13:38:22;12.75;;;4.15;;
28070;SDS011;15383;48.408;9.968;2022-12-18T13:40:57;19.88;;;4.95;;
28070;SDS011;15383;48.408;9.968;2022-12-18T13:43:28;18.73;;;8.55;;
28070;SDS011;15383;48.408;9.968;2022-12-18T13:51:00;22.25;;;7.57;;
28070;SDS011;15383;48.408;9.968;2022-12-18T13:53:31;18.05;;;6.88;;
28070;SDS011;15383;48.408;9.968;2022-12-18T13:56:01;14.48;;;6.57;;
28070;SDS011;15383;48.408;9.968;2022-12-18T13:58:27;16.30;;;6.82;;
28070;SDS011;15383;48.408;9.968;2022-12-18T14:00:53;16.58;;;6.47;;
28070;SDS011;15383;48.408;9.968;2022-12-18T14:03:22;14.18;;;6.72;;
28070;SDS011;15383;48.408;9.968;2022-12-18T14:05:53;13.60;;;5.32;;
28070;SDS011;15383;48.408;9.968;2022-12-18T14:08:23;15.63;;;5.07;;
28070;SDS011;15383;48.408;9.968;2022-12-18T14:10:52;13.80;;;5.40;;
28070;SDS011;15383;48.408;9.968;2022-12-18T14:13:26;12.05;;;5.10;;
28070;SDS011;15383;48.408;9.968;2022-12-18T14:15:55;19.42;;;5.57;;
28070;SDS011;15383;48.408;9.968;2022-12-18T14:18:22;16.90;;;4.47;;
28070;SDS011;15383;48.408;9.968;2022-12-18T14:20:58;10.57;;;4.43;;
28070;SDS011;15383;48.408;9.968;2022-12-18T14:23:36;22.95;;;4.22;;
28070;SDS011;15383;48.408;9.968;2022-12-18T14:26:19;17.33;;;4.55;;
28070;SDS011;15383;48.408;9.968;2022-12-18T14:28:52;17.05;;;4.30;;
28070;SDS011;15383;48.408;9.968;2022-12-18T14:31:22;12.80;;;4.15;;
28070;SDS011;15383;48.408;9.968;2022-12-18T14:33:50;10.50;;;3.78;;
28070;SDS011;15383;48.408;9.968;2022-12-18T14:36:24;11.75;;;4.65;;
28070;SDS011;15383;48.408;9.968;2022-12-18T14:38:52;9.13;;;4.00;;
28070;SDS011;15383;48.408;9.968;2022-12-18T14:41:19;12.77;;;4.07;;
28070;SDS011;15383;48.408;9.968;2022-12-18T14:43:47;8.52;;;4.18;;
28070;SDS011;15383;48.408;9.968;2022-12-18T14:46:34;9.88;;;4.35;;
28070;SDS011;15383;48.408;9.968;2022-12-18T14:49:47;7.60;;;3.65;;
28070;SDS011;15383;48.408;9.968;2022-12-18T14:54:24;15.02;;;3.80;;
28070;SDS011;15383;48.408;9.968;2022-12-18T14:56:57;10.60;;;3.53;;
28070;SDS011;15383;48.408;9.968;2022-12-18T14:59:29;12.90;;;3.88;;
28070;SDS011;15383;48.408;9.968;2022-12-18T15:07:11;8.60;;;4.07;;
28070;SDS011;15383;48.408;9.968;2022-12-18T15:09:43;14.73;;;5.22;;
28070;SDS011;15383;48.408;9.968;2022-12-18T15:12:34;12.38;;;4.65;;
28070;SDS011;15383;48.408;9.968;2022-12-18T15:15:00;14.98;;;4.95;;
28070;SDS011;15383;48.408;9.968;2022-12-18T15:17:27;9.05;;;4.60;;
28070;SDS011;15383;48.408;9.968;2022-12-18T15:20:03;14.35;;;5.13;;
28070;SDS011;15383;48.408;9.968;2022-12-18T15:22:35;15.05;;;5.13;;
28070;SDS011;15383;48.408;9.968;2022-12-18T15:25:02;16.65;;;5.20;;
28070;SDS011;15383;48.408;9.968;2022-12-18T15:27:46;13.60;;;5.10;;
28070;SDS011;15383;48.408;9.968;2022-12-18T15:32:41;14.45;;;5.55;;
28070;SDS011;15383;48.408;9.968;2022-12-18T15:37:49;14.68;;;5.07;;
28070;SDS011;15383;48.408;9.968;2022-12-18T15:40:17;13.30;;;5.30;;
28070;SDS011;15383;48.408;9.968;2022-12-18T15:42:44;11.32;;;5.07;;
28070;SDS011;15383;48.408;9.968;2022-12-18T15:45:30;19.73;;;6.22;;
28070;SDS011;15383;48.408;9.968;2022-12-18T15:47:55;12.93;;;5.38;;
28070;SDS011;15383;48.408;9.968;2022-12-18T15:50:21;13.77;;;5.78;;
28070;SDS011;15383;48.408;9.968;2022-12-18T15:52:48;20.10;;;6.00;;
28070;SDS011;15383;48.408;9.968;2022-12-18T15:55:17;15.75;;;6.45;;
28070;SDS011;15383;48.408;9.968;2022-12-18T15:58:06;17.25;;;5.93;;
28070;SDS011;15383;48.408;9.968;2022-12-18T16:00:34;24.77;;;6.40;;
28070;SDS011;15383;48.408;9.968;2022-12-18T16:03:05;19.33;;;6.07;;
28070;SDS011;15383;48.408;9.968;2022-12-18T16:05:42;30.27;;;6.50;;
28070;SDS011;15383;48.408;9.968;2022-12-18T16:08:08;22.20;;;5.53;;
28070;SDS011;15383;48.408;9.968;2022-12-18T16:10:33;17.75;;;5.00;;
28070;SDS011;15383;48.408;9.968;2022-12-18T16:13:00;25.00;;;6.22;;
28070;SDS011;15383;48.408;9.968;2022-12-18T16:15:25;19.73;;;6.63;;
28070;SDS011;15383;48.408;9.968;2022-12-18T16:17:51;23.75;;;6.85;;
28070;SDS011;15383;48.408;9.968;2022-12-18T16:20:17;22.77;;;7.30;;
28070;SDS011;15383;48.408;9.968;2022-12-18T16:22:47;42.15;;;8.43;;
28070;SDS011;15383;48.408;9.968;2022-12-18T16:25:17;24.80;;;7.88;;
28070;SDS011;15383;48.408;9.968;2022-12-18T16:27:48;21.08;;;7.53;;
28070;SDS011;15383;48.408;9.968;2022-12-18T16:30:15;25.10;;;8.02;;
28070;SDS011;15383;48.408;9.968;2022-12-18T16:32:44;31.83;;;8.20;;
28070;SDS011;15383;48.408;9.968;2022-12-18T16:35:10;33.55;;;8.18;;
28070;SDS011;15383;48.408;9.968;2022-12-18T16:37:37;24.38;;;7.90;;
28070;SDS011;15383;48.408;9.968;2022-12-18T16:40:02;22.63;;;8.18;;
28070;SDS011;15383;48.408;9.968;2022-12-18T16:42:28;35.92;;;8.00;;
28070;SDS011;15383;48.408;9.968;2022-12-18T16:44:54;37.25;;;8.57;;
28070;SDS011;15383;48.408;9.968;2022-12-18T16:47:19;22.33;;;7.88;;
28070;SDS011;15383;48.408;9.968;2022-12-18T16:49:45;26.85;;;8.10;;
28070;SDS011;15383;48.408;9.968;2022-12-18T16:52:10;20.90;;;7.80;;
28070;SDS011;15383;48.408;9.968;2022-12-18T16:54:36;16.67;;;6.45;;
28070;SDS011;15383;48.408;9.968;2022-12-18T16:57:02;29.88;;;8.52;;
28070;SDS011;15383;48.408;9.968;2022-12-18T16:59:29;22.98;;;7.78;;
28070;SDS011;15383;48.408;9.968;2022-12-18T17:01:55;20.63;;;6.72;;
28070;SDS011;15383;48.408;9.968;2022-12-18T17:04:21;17.35;;;6.25;;
28070;SDS011;15383;48.408;9.968;2022-12-18T17:06:47;23.63;;;7.43;;
28070;SDS011;15383;48.408;9.968;2022-12-18T17:09:17;24.83;;;7.47;;
28070;SDS011;15383;48.408;9.968;2022-12-18T17:11:47;15.50;;;6.68;;
28070;SDS011;15383;48.408;9.968;2022-12-18T17:14:17;21.55;;;8.15;;
28070;SDS011;15383;48.408;9.968;2022-12-18T17:16:44;25.27;;;6.70;;
28070;SDS011;15383;48.408;9.968;2022-12-18T17:19:10;18.98;;;6.15;;
28070;SDS011;15383;48.408;9.968;2022-12-18T17:21:36;20.85;;;6.63;;
28070;SDS011;15383;48.408;9.968;2022-12-18T17:24:02;17.75;;;6.18;;
28070;SDS011;15383;48.408;9.968;2022-12-18T17:26:28;20.85;;;7.05;;
28070;SDS011;15383;48.408;9.968;2022-12-18T17:28:57;22.52;;;6.35;;
28070;SDS011;15383;48.408;9.968;2022-12-18T17:31:25;22.00;;;6.07;;
28070;SDS011;15383;48.408;9.968;2022-12-18T17:33:52;27.02;;;6.63;;
28070;SDS011;15383;48.408;9.968;2022-12-18T17:36:18;22.55;;;6.47;;
28070;SDS011;15383;48.408;9.968;2022-12-18T17:38:52;21.35;;;5.95;;
28070;SDS011;15383;48.408;9.968;2022-12-18T17:41:19;24.05;;;6.45;;
28070;SDS011;15383;48.408;9.968;2022-12-18T17:43:58;15.40;;;5.50;;
28070;SDS011;15383;48.408;9.968;2022-12-18T17:46:26;13.00;;;5.20;;
28070;SDS011;15383;48.408;9.968;2022-12-18T17:48:59;14.68;;;5.53;;
28070;SDS011;15383;48.408;9.968;2022-12-18T17:51:26;14.18;;;5.45;;
28070;SDS011;15383;48.408;9.968;2022-12-18T17:53:52;15.05;;;5.60;;
28070;SDS011;15383;48.408;9.968;2022-12-18T17:56:20;12.05;;;5.30;;
28070;SDS011;15383;48.408;9.968;2022-12-18T17:58:46;11.60;;;5.57;;
28070;SDS011;15383;48.408;9.968;2022-12-18T18:01:15;8.55;;;4.63;;
28070;SDS011;15383;48.408;9.968;2022-12-18T18:03:42;13.68;;;4.78;;
28070;SDS011;15383;48.408;9.968;2022-12-18T18:06:08;14.70;;;5.78;;
28070;SDS011;15383;48.408;9.968;2022-12-18T18:08:34;10.43;;;4.35;;
28070;SDS011;15383;48.408;9.968;2022-12-18T18:11:07;14.80;;;5.10;;
28070;SDS011;15383;48.408;9.968;2022-12-18T18:13:54;13.82;;;4.65;;
28070;SDS011;15383;48.408;9.968;2022-12-18T18:16:35;12.13;;;4.80;;
28070;SDS011;15383;48.408;9.968;2022-12-18T18:19:04;13.77;;;5.47;;
28070;SDS011;15383;48.408;9.968;2022-12-18T18:21:32;14.25;;;4.75;;
28070;SDS011;15383;48.408;9.968;2022-12-18T18:24:01;10.88;;;5.03;;
28070;SDS011;15383;48.408;9.968;2022-12-18T18:26:29;14.80;;;5.30;;
28070;SDS011;15383;48.408;9.968;2022-12-18T18:28:56;13.20;;;5.35;;
28070;SDS011;15383;48.408;9.968;2022-12-18T18:31:26;13.05;;;5.88;;
28070;SDS011;15383;48.408;9.968;2022-12-18T18:33:53;23.05;;;6.45;;
28070;SDS011;15383;48.408;9.968;2022-12-18T18:36:19;27.67;;;5.90;;
28070;SDS011;15383;48.408;9.968;2022-12-18T18:38:45;17.13;;;6.25;;
28070;SDS011;15383;48.408;9.968;2022-12-18T18:41:11;14.75;;;6.05;;
28070;SDS011;15383;48.408;9.968;2022-12-18T18:43:36;15.52;;;5.60;;
28070;SDS011;15383;48.408;9.968;2022-12-18T18:46:03;24.85;;;6.35;;
28070;SDS011;15383;48.408;9.968;2022-12-18T18:48:30;14.70;;;6.78;;
28070;SDS011;15383;48.408;9.968;2022-12-18T18:50:58;11.40;;;4.50;;
28070;SDS011;15383;48.408;9.968;2022-12-18T18:53:26;12.23;;;5.28;;
28070;SDS011;15383;48.408;9.968;2022-12-18T18:55:52;10.63;;;5.30;;
28070;SDS011;15383;48.408;9.968;2022-12-18T18:58:21;11.55;;;4.97;;
28070;SDS011;15383;48.408;9.968;2022-12-18T19:00:52;16.08;;;4.55;;
28070;SDS011;15383;48.408;9.968;2022-12-18T19:03:19;12.77;;;5.22;;
28070;SDS011;15383;48.408;9.968;2022-12-18T19:05:48;14.25;;;5.15;;
28070;SDS011;15383;48.408;9.968;2022-12-18T19:08:15;13.95;;;4.60;;
28070;SDS011;15383;48.408;9.968;2022-12-18T19:10:41;15.40;;;4.78;;
28070;SDS011;15383;48.408;9.968;2022-12-18T19:13:07;11.60;;;5.10;;
28070;SDS011;15383;48.408;9.968;2022-12-18T19:15:45;14.48;;;5.05;;
28070;SDS011;15383;48.408;9.968;2022-12-18T19:18:12;12.88;;;4.95;;
28070;SDS011;15383;48.408;9.968;2022-12-18T19:20:38;26.40;;;9.35;;
28070;SDS011;15383;48.408;9.968;2022-12-18T19:23:04;23.02;;;8.10;;
28070;SDS011;15383;48.408;9.968;2022-12-18T19:25:29;19.95;;;7.82;;
28070;SDS011;15383;48.408;9.968;2022-12-18T19:27:57;23.60;;;7.10;;
28070;SDS011;15383;48.408;9.968;2022-12-18T19:30:23;24.95;;;8.70;;
28070;SDS011;15383;48.408;9.968;2022-12-18T19:32:48;31.42;;;10.77;;
28070;SDS011;15383;48.408;9.968;2022-12-18T19:35:14;24.05;;;11.13;;
28070;SDS011;15383;48.408;9.968;2022-12-18T19:37:39;24.85;;;9.90;;
28070;SDS011;15383;48.408;9.968;2022-12-18T19:40:05;21.33;;;9.57;;
28070;SDS011;15383;48.408;9.968;2022-12-18T19:42:31;21.63;;;7.47;;
28070;SDS011;15383;48.408;9.968;2022-12-18T19:44:57;17.33;;;7.38;;
28070;SDS011;15383;48.408;9.968;2022-12-18T19:47:22;20.13;;;7.20;;
28070;SDS011;15383;48.408;9.968;2022-12-18T19:49:48;17.52;;;7.75;;
28070;SDS011;15383;48.408;9.968;2022-12-18T19:52:15;16.15;;;6.60;;
28070;SDS011;15383;48.408;9.968;2022-12-18T19:54:40;13.30;;;6.72;;
28070;SDS011;15383;48.408;9.968;2022-12-18T19:57:06;20.20;;;6.97;;
28070;SDS011;15383;48.408;9.968;2022-12-18T19:59:35;12.63;;;5.85;;
28070;SDS011;15383;48.408;9.968;2022-12-18T20:02:01;15.60;;;5.63;;
28070;SDS011;15383;48.408;9.968;2022-12-18T20:04:26;16.52;;;5.15;;
28070;SDS011;15383;48.408;9.968;2022-12-18T20:06:52;13.23;;;5.60;;
28070;SDS011;15383;48.408;9.968;2022-12-18T20:09:19;11.23;;;5.20;;
28070;SDS011;15383;48.408;9.968;2022-12-18T20:11:45;9.70;;;4.78;;
28070;SDS011;15383;48.408;9.968;2022-12-18T20:14:11;11.98;;;6.03;;
28070;SDS011;15383;48.408;9.968;2022-12-18T20:16:38;10.90;;;4.97;;
28070;SDS011;15383;48.408;9.968;2022-12-18T20:19:04;10.43;;;4.95;;
28070;SDS011;15383;48.408;9.968;2022-12-18T20:21:31;8.25;;;4.57;;
28070;SDS011;15383;48.408;9.968;2022-12-18T20:23:56;11.18;;;4.70;;
28070;SDS011;15383;48.408;9.968;2022-12-18T20:26:23;10.57;;;4.75;;
28070;SDS011;15383;48.408;9.968;2022-12-18T20:28:50;12.20;;;4.57;;
28070;SDS011;15383;48.408;9.968;2022-12-18T20:31:16;9.35;;;4.53;;
28070;SDS011;15383;48.408;9.968;2022-12-18T20:33:42;8.15;;;3.92;;
28070;SDS011;15383;48.408;9.968;2022-12-18T20:36:09;10.57;;;4.25;;
28070;SDS011;15383;48.408;9.968;2022-12-18T20:38:37;7.10;;;4.22;;
28070;SDS011;15383;48.408;9.968;2022-12-18T20:41:07;7.15;;;3.97;;
28070;SDS011;15383;48.408;9.968;2022-12-18T20:43:34;9.75;;;4.15;;
28070;SDS011;15383;48.408;9.968;2022-12-18T20:46:04;7.85;;;3.75;;
28070;SDS011;15383;48.408;9.968;2022-12-18T20:48:31;8.90;;;3.75;;
28070;SDS011;15383;48.408;9.968;2022-12-18T20:51:01;9.18;;;4.03;;
28070;SDS011;15383;48.408;9.968;2022-12-18T20:53:29;10.57;;;3.83;;
28070;SDS011;15383;48.408;9.968;2022-12-18T20:55:56;14.07;;;4.18;;
28070;SDS011;15383;48.408;9.968;2022-12-18T20:58:21;10.63;;;4.55;;
28070;SDS011;15383;48.408;9.968;2022-12-18T21:00:47;7.68;;;3.80;;
28070;SDS011;15383;48.408;9.968;2022-12-18T21:03:12;6.03;;;3.38;;
28070;SDS011;15383;48.408;9.968;2022-12-18T21:05:38;7.15;;;3.70;;
28070;SDS011;15383;48.408;9.968;2022-12-18T21:08:04;7.78;;;3.83;;
28070;SDS011;15383;48.408;9.968;2022-12-18T21:10:29;7.07;;;3.53;;
28070;SDS011;15383;48.408;9.968;2022-12-18T21:12:55;6.60;;;3.67;;
28070;SDS011;15383;48.408;9.968;2022-12-18T21:15:20;6.53;;;3.92;;
28070;SDS011;15383;48.408;9.968;2022-12-18T21:17:46;8.60;;;3.80;;
28070;SDS011;15383;48.408;9.968;2022-12-18T21:20:12;5.13;;;3.25;;
28070;SDS011;15383;48.408;9.968;2022-12-18T21:22:38;5.43;;;3.30;;
28070;SDS011;15383;48.408;9.968;2022-12-18T21:25:04;6.25;;;3.65;;
28070;SDS011;15383;48.408;9.968;2022-12-18T21:27:30;9.07;;;4.38;;
28070;SDS011;15383;48.408;9.968;2022-12-18T21:29:55;6.15;;;3.58;;
28070;SDS011;15383;48.408;9.968;2022-12-18T21:32:21;8.75;;;3.20;;
28070;SDS011;15383;48.408;9.968;2022-12-18T21:34:46;8.88;;;3.55;;
28070;SDS011;15383;48.408;9.968;2022-12-18T21:37:12;6.22;;;3.33;;
28070;SDS011;15383;48.408;9.968;2022-12-18T21:39:38;7.15;;;3.65;;
28070;SDS011;15383;48.408;9.968;2022-12-18T21:42:04;5.90;;;3.40;;
28070;SDS011;15383;48.408;9.968;2022-12-18T21:44:48;8.57;;;3.30;;
28070;SDS011;15383;48.408;9.968;2022-12-18T21:47:14;6.38;;;3.03;;
28070;SDS011;15383;48.408;9.968;2022-12-18T21:49:39;6.75;;;2.97;;
28070;SDS011;15383;48.408;9.968;2022-12-18T21:52:05;5.40;;;2.78;;
28070;SDS011;15383;48.408;9.968;2022-12-18T21:54:31;5.20;;;3.20;;
28070;SDS011;15383;48.408;9.968;2022-12-18T21:56:59;5.90;;;2.85;;
28070;SDS011;15383;48.408;9.968;2022-12-18T22:00:18;17.63;;;3.53;;
28070;SDS011;15383;48.408;9.968;2022-12-18T22:02:44;12.82;;;3.75;;
28070;SDS011;15383;48.408;9.968;2022-12-18T22:05:09;18.95;;;3.90;;
28070;SDS011;15383;48.408;9.968;2022-12-18T22:07:35;13.35;;;4.28;;
28070;SDS011;15383;48.408;9.968;2022-12-18T22:10:00;24.02;;;4.45;;
28070;SDS011;15383;48.408;9.968;2022-12-18T22:12:26;28.75;;;4.90;;
28070;SDS011;15383;48.408;9.968;2022-12-18T22:15:01;21.88;;;4.13;;
28070;SDS011;15383;48.408;9.968;2022-12-18T22:17:28;21.80;;;4.40;;
28070;SDS011;15383;48.408;9.968;2022-12-18T22:19:53;16.13;;;4.70;;
28070;SDS011;15383;48.408;9.968;2022-12-18T22:22:19;18.40;;;4.47;;
28070;SDS011;15383;48.408;9.968;2022-12-18T22:24:45;25.75;;;3.92;;
28070;SDS011;15383;48.408;9.968;2022-12-18T22:27:10;22.67;;;4.60;;
28070;SDS011;15383;48.408;9.968;2022-12-18T22:29:36;14.52;;;4.95;;
28070;SDS011;15383;48.408;9.968;2022-12-18T22:32:20;18.73;;;4.45;;
28070;SDS011;15383;48.408;9.968;2022-12-18T22:34:46;15.70;;;3.83;;
28070;SDS011;15383;48.408;9.968;2022-12-18T22:37:11;14.98;;;4.25;;
28070;SDS011;15383;48.408;9.968;2022-12-18T22:39:37;19.73;;;3.88;;
28070;SDS011;15383;48.408;9.968;2022-12-18T22:42:04;18.55;;;4.07;;
28070;SDS011;15383;48.408;9.968;2022-12-18T22:44:29;10.35;;;4.03;;
28070;SDS011;15383;48.408;9.968;2022-12-18T22:46:55;11.23;;;3.63;;
28070;SDS011;15383;48.408;9.968;2022-12-18T22:49:22;10.65;;;3.47;;
28070;SDS011;15383;48.408;9.968;2022-12-18T22:51:49;11.32;;;4.05;;
28070;SDS011;15383;48.408;9.968;2022-12-18T22:54:14;15.60;;;3.95;;
28070;SDS011;15383;48.408;9.968;2022-12-18T22:56:40;13.13;;;3.90;;
28070;SDS011;15383;48.408;9.968;2022-12-18T22:59:06;13.60;;;4.20;;
28070;SDS011;15383;48.408;9.968;2022-12-18T23:01:33;9.98;;;4.20;;
28070;SDS011;15383;48.408;9.968;2022-12-18T23:03:59;15.50;;;4.18;;
28070;SDS011;15383;48.408;9.968;2022-12-18T23:06:25;9.82;;;3.95;;
28070;SDS011;15383;48.408;9.968;2022-12-18T23:08:53;11.18;;;3.63;;
28070;SDS011;15383;48.408;9.968;2022-12-18T23:11:21;18.52;;;3.92;;
28070;SDS011;15383;48.408;9.968;2022-12-18T23:13:46;15.20;;;3.90;;
28070;SDS011;15383;48.408;9.968;2022-12-18T23:16:13;15.00;;;4.32;;
28070;SDS011;15383;48.408;9.968;2022-12-18T23:18:40;10.02;;;3.60;;
28070;SDS011;15383;48.408;9.968;2022-12-18T23:21:09;10.25;;;4.05;;
28070;SDS011;15383;48.408;9.968;2022-12-18T23:23:36;9.57;;;3.15;;
28070;SDS011;15383;48.408;9.968;2022-12-18T23:26:04;14.52;;;3.75;;
28070;SDS011;15383;48.408;9.968;2022-12-18T23:28:34;14.35;;;3.78;;
28070;SDS011;15383;48.408;9.968;2022-12-18T23:31:04;9.98;;;3.63;;
28070;SDS011;15383;48.408;9.968;2022-12-18T23:33:31;11.30;;;3.58;;
28070;SDS011;15383;48.408;9.968;2022-12-18T23:35:58;8.40;;;3.70;;
28070;SDS011;15383;48.408;9.968;2022-12-18T23:38:25;8.18;;;3.67;;
28070;SDS011;15383;48.408;9.968;2022-12-18T23:40:50;7.25;;;3.05;;
28070;SDS011;15383;48.408;9.968;2022-12-18T23:43:16;5.40;;;2.90;;
28070;SDS011;15383;48.408;9.968;2022-12-18T23:45:41;5.55;;;3.17;;
28070;SDS011;15383;48.408;9.968;2022-12-18T23:48:07;8.27;;;3.88;;
28070;SDS011;15383;48.408;9.968;2022-12-18T23:50:36;7.57;;;3.40;;
28070;SDS011;15383;48.408;9.968;2022-12-18T23:53:02;7.90;;;3.42;;
28070;SDS011;15383;48.408;9.968;2022-12-18T23:55:28;8.77;;;3.17;;
28070;SDS011;15383;48.408;9.968;2022-12-18T23:57:53;13.48;;;3.20;;
